Time;durP1;ratioP1;P1;durP2;ratioP2;P2;SDS_P1;SDS_P2;PMS_P1;PMS_P2;Temp;Humidity;BMP_temperature;BMP_pressure;BME280_temperature;BME280_humidity;BME280_pressure;Samples;Min_cycle;Max_cycle;Signal;HPM_P1;HPM_P2
2023/10/25 00:01:50;;;;;;;16.35;10.88;;;;;;;8.77;100.00;100021.97;4895924;29;20054;-78
2023/10/25 00:04:19;;;;;;;19.60;10.57;;;;;;;8.75;100.00;100005.31;4908598;29;20936;-78
2023/10/25 00:06:47;;;;;;;22.67;11.55;;;;;;;8.75;100.00;100013.22;4935875;29;20047;-78
2023/10/25 00:09:15;;;;;;;16.02;10.45;;;;;;;8.72;100.00;100004.47;4918240;29;20047;-78
2023/10/25 00:11:42;;;;;;;17.90;10.57;;;;;;;8.70;100.00;100009.72;4936936;29;20058;-77
2023/10/25 00:14:09;;;;;;;19.98;10.73;;;;;;;8.68;100.00;100002.72;4915714;29;20058;-77
2023/10/25 00:16:37;;;;;;;22.95;10.50;;;;;;;8.67;100.00;100014.09;4934554;29;20043;-76
2023/10/25 00:19:04;;;;;;;16.67;9.93;;;;;;;8.66;100.00;100013.22;4898236;28;20047;-77
2023/10/25 00:21:32;;;;;;;21.25;10.02;;;;;;;8.64;100.00;100014.97;4934046;29;20047;-77
2023/10/25 00:23:59;;;;;;;17.60;10.10;;;;;;;8.62;100.00;100019.38;4935994;29;20047;-77
2023/10/25 00:26:27;;;;;;;14.20;10.20;;;;;;;8.61;100.00;100012.34;4935591;29;20039;-76
2023/10/25 00:28:56;;;;;;;16.38;9.23;;;;;;;8.59;100.00;100017.59;4934307;29;20438;-78
2023/10/25 00:31:24;;;;;;;20.90;10.10;;;;;;;8.59;100.00;100019.38;4930707;29;20051;-77
2023/10/25 00:33:51;;;;;;;15.00;9.73;;;;;;;8.58;100.00;100017.59;4862184;29;20055;-77
2023/10/25 00:36:19;;;;;;;15.43;9.32;;;;;;;8.57;100.00;100024.63;4919530;29;20413;-77
2023/10/25 00:38:47;;;;;;;16.00;9.27;;;;;;;8.56;100.00;100022.88;4952503;29;20054;-77
2023/10/25 00:41:15;;;;;;;15.05;9.57;;;;;;;8.57;100.00;100023.75;4915669;29;20051;-78
2023/10/25 00:43:43;;;;;;;19.65;9.38;;;;;;;8.55;100.00;100009.75;4907500;29;20533;-77
2023/10/25 00:46:11;;;;;;;17.50;9.52;;;;;;;8.54;100.00;100018.50;4931212;29;20047;-77
2023/10/25 00:48:46;;;;;;;16.65;9.68;;;;;;;8.52;100.00;100018.50;4863133;29;20438;-76
2023/10/25 00:51:19;;;;;;;14.38;9.73;;;;;;;8.50;100.00;100022.88;4917739;29;20088;-77
2023/10/25 00:53:50;;;;;;;18.42;9.88;;;;;;;8.49;100.00;100020.28;4935928;29;20063;-77
2023/10/25 00:56:21;;;;;;;20.45;9.32;;;;;;;8.47;100.00;100012.38;4934021;29;20066;-77
2023/10/25 00:58:50;;;;;;;15.30;8.70;;;;;;;8.46;100.00;100012.38;4935750;29;20424;-77
2023/10/25 01:01:19;;;;;;;12.95;9.70;;;;;;;8.45;100.00;100013.25;4931272;29;20076;-77
2023/10/25 01:03:47;;;;;;;15.45;9.40;;;;;;;8.44;100.00;100011.53;4932905;29;20054;-77
2023/10/25 01:06:16;;;;;;;12.57;9.15;;;;;;;8.43;100.00;100009.75;4886615;29;20500;-77
2023/10/25 01:08:44;;;;;;;14.23;8.63;;;;;;;8.40;100.00;100008.84;4919378;29;20055;-78
2023/10/25 01:11:12;;;;;;;15.52;9.95;;;;;;;8.38;100.00;100002.72;4930770;29;20394;-79
2023/10/25 01:13:39;;;;;;;17.77;8.98;;;;;;;8.38;100.00;100004.50;4936978;29;20054;-78
2023/10/25 01:16:06;;;;;;;16.25;9.20;;;;;;;8.37;100.00;100003.63;4931678;29;20059;-77
2023/10/25 01:18:34;;;;;;;14.68;8.85;;;;;;;8.37;100.00;100000.09;4919148;29;20067;-78
2023/10/25 01:21:01;;;;;;;16.50;8.75;;;;;;;8.36;100.00;100006.25;4891825;29;20074;-77
2023/10/25 01:23:29;;;;;;;12.75;8.65;;;;;;;8.35;100.00;99994.84;4916744;29;20138;-77
2023/10/25 01:25:56;;;;;;;17.30;9.48;;;;;;;8.34;100.00;99992.25;4931514;29;20059;-77
2023/10/25 01:28:24;;;;;;;19.10;9.35;;;;;;;8.33;100.00;100006.25;4934288;29;20043;-77
2023/10/25 01:30:51;;;;;;;14.95;8.40;;;;;;;8.32;100.00;100001.88;4918838;29;20047;-77
2023/10/25 01:33:20;;;;;;;11.63;7.78;;;;;;;8.30;100.00;99995.72;4948792;29;20039;-77
2023/10/25 01:35:47;;;;;;;12.35;8.20;;;;;;;8.28;100.00;99995.75;4884613;29;20047;-78
2023/10/25 01:38:15;;;;;;;13.73;8.48;;;;;;;8.26;100.00;99997.50;4914475;29;20046;-79
2023/10/25 01:40:42;;;;;;;15.30;8.68;;;;;;;8.23;100.00;99992.25;4914548;29;20398;-78
2023/10/25 01:43:09;;;;;;;20.58;9.25;;;;;;;8.23;100.00;100004.50;4932374;29;20043;-77
2023/10/25 01:45:37;;;;;;;17.73;8.75;;;;;;;8.22;100.00;100008.00;4916813;29;20047;-77
2023/10/25 01:48:04;;;;;;;14.80;8.32;;;;;;;8.19;100.00;100001.00;4928357;29;20421;-78
2023/10/25 01:50:32;;;;;;;14.18;8.73;;;;;;;8.17;100.00;99993.13;4905787;28;20488;-77
2023/10/25 01:52:59;;;;;;;15.75;8.00;;;;;;;8.15;100.00;99996.66;4933192;29;20062;-76
2023/10/25 01:55:27;;;;;;;11.27;7.90;;;;;;;8.14;100.00;99995.75;4932934;29;20058;-77
2023/10/25 01:57:54;;;;;;;12.63;7.97;;;;;;;8.12;100.00;99989.63;4932722;29;20044;-78
2023/10/25 02:00:21;;;;;;;11.65;8.05;;;;;;;8.10;100.00;99991.38;4931509;29;20047;-78
2023/10/25 02:02:49;;;;;;;15.50;7.40;;;;;;;8.09;100.00;99989.66;4928727;29;20047;-77
2023/10/25 02:05:17;;;;;;;13.15;8.45;;;;;;;8.08;100.00;100001.00;4922165;29;20078;-78
2023/10/25 02:07:45;;;;;;;20.85;8.63;;;;;;;8.05;100.00;99995.75;4892239;29;20074;-78
2023/10/25 02:10:12;;;;;;;12.43;8.20;;;;;;;8.03;100.00;99994.88;4914801;29;20537;-77
2023/10/25 02:12:40;;;;;;;12.00;7.82;;;;;;;8.03;100.00;100008.00;4919559;29;20051;-77
2023/10/25 02:15:08;;;;;;;15.80;7.85;;;;;;;8.02;100.00;100002.78;4948549;29;20508;-78
2023/10/25 02:17:35;;;;;;;15.90;7.93;;;;;;;8.00;100.00;99989.66;4917864;29;20054;-77
2023/10/25 02:20:04;;;;;;;12.63;7.35;;;;;;;7.98;100.00;99987.03;4930521;29;20054;-77
2023/10/25 02:22:32;;;;;;;12.45;8.18;;;;;;;7.96;100.00;99986.16;4892835;28;20062;-77
2023/10/25 02:24:59;;;;;;;13.52;8.35;;;;;;;7.96;100.00;99994.03;4943848;29;20051;-77
2023/10/25 02:27:26;;;;;;;11.13;7.57;;;;;;;7.92;100.00;99997.53;4931535;29;20058;-78
2023/10/25 02:29:54;;;;;;;13.13;7.82;;;;;;;7.91;100.00;99990.50;4916308;29;20417;-77
2023/10/25 02:32:23;;;;;;;10.95;7.88;;;;;;;7.91;100.00;99990.50;4917033;29;20521;-77
2023/10/25 02:34:50;;;;;;;10.93;8.40;;;;;;;7.90;100.00;99991.41;4920008;29;20059;-77
2023/10/25 02:37:18;;;;;;;12.43;7.95;;;;;;;7.88;100.00;99985.28;4856176;28;20055;-76
2023/10/25 02:39:45;;;;;;;10.93;7.55;;;;;;;7.87;100.00;99985.28;4918338;29;20051;-76
2023/10/25 02:42:13;;;;;;;14.93;8.20;;;;;;;7.87;100.00;99995.78;4931555;29;20058;-76
2023/10/25 02:44:40;;;;;;;12.15;8.23;;;;;;;7.86;100.00;99994.88;4950985;29;20051;-77
2023/10/25 02:47:08;;;;;;;18.35;8.43;;;;;;;7.85;100.00;99989.66;4945347;28;20042;-77
2023/10/25 02:49:35;;;;;;;11.73;7.70;;;;;;;7.85;100.00;99984.41;4934086;29;20051;-77
2023/10/25 02:52:03;;;;;;;14.18;8.63;;;;;;;7.85;100.00;99993.13;4941516;29;20429;-77
2023/10/25 02:54:31;;;;;;;18.58;9.18;;;;;;;7.85;100.00;99987.03;4875945;29;20062;-77
2023/10/25 02:56:58;;;;;;;13.20;8.20;;;;;;;7.85;100.00;99985.28;4931113;29;20070;-78
2023/10/25 02:59:26;;;;;;;19.23;8.82;;;;;;;7.84;100.00;99977.41;4931433;29;20548;-77
2023/10/25 03:01:53;;;;;;;15.13;8.68;;;;;;;7.82;100.00;99980.00;4920667;29;20071;-77
2023/10/25 03:04:22;;;;;;;12.13;9.25;;;;;;;7.84;100.00;99980.00;4928567;29;20051;-77
2023/10/25 03:06:49;;;;;;;17.77;9.63;;;;;;;7.81;100.00;99981.78;4912315;29;20418;-77
2023/10/25 03:09:17;;;;;;;18.38;9.80;;;;;;;7.81;100.00;99973.03;4890504;29;20047;-78
2023/10/25 03:11:44;;;;;;;16.50;8.60;;;;;;;7.80;100.00;99984.38;4906202;28;20051;-77
2023/10/25 03:14:11;;;;;;;16.27;9.65;;;;;;;7.79;100.00;99977.41;4932388;29;20054;-77
2023/10/25 03:16:39;;;;;;;15.90;8.73;;;;;;;7.78;100.00;99979.13;4935479;29;20051;-78
2023/10/25 03:19:06;;;;;;;17.75;7.95;;;;;;;7.78;100.00;99978.25;4923941;28;20058;-78
2023/10/25 03:21:34;;;;;;;19.20;9.10;;;;;;;7.76;100.00;99982.63;4922997;29;20078;-78
2023/10/25 03:24:02;;;;;;;13.90;8.82;;;;;;;7.75;100.00;99979.16;4892108;29;20051;-77
2023/10/25 03:26:29;;;;;;;15.02;9.82;;;;;;;7.74;100.00;99977.38;4921998;29;20058;-77
2023/10/25 03:28:57;;;;;;;13.75;9.80;;;;;;;7.74;100.00;99979.13;4905419;29;20058;-78
2023/10/25 03:31:24;;;;;;;17.20;10.25;;;;;;;7.73;100.00;99983.53;4921307;29;20051;-78
2023/10/25 03:33:52;;;;;;;18.83;10.40;;;;;;;7.72;100.00;99976.50;4938720;29;20062;-78
2023/10/25 03:36:20;;;;;;;17.27;9.68;;;;;;;7.72;100.00;99973.03;4920895;29;20055;-78
2023/10/25 03:38:47;;;;;;;17.30;10.43;;;;;;;7.71;100.00;99966.00;4937530;29;20066;-79
2023/10/25 03:41:14;;;;;;;17.35;11.00;;;;;;;7.70;100.00;99970.41;4875067;29;20075;-77
2023/10/25 03:43:42;;;;;;;15.07;11.05;;;;;;;7.70;100.00;99978.25;4916824;29;20059;-78
2023/10/25 03:46:09;;;;;;;19.80;10.57;;;;;;;7.69;100.00;99971.25;4918825;29;20043;-77
2023/10/25 03:48:38;;;;;;;15.98;10.73;;;;;;;7.67;100.00;99965.13;4921863;29;20055;-77
2023/10/25 03:51:07;;;;;;;16.55;10.95;;;;;;;7.64;100.00;99965.16;4935421;29;20047;-77
2023/10/25 03:53:38;;;;;;;22.00;12.43;;;;;;;7.66;100.00;99967.78;4955542;29;20055;-77
2023/10/25 03:56:05;;;;;;;18.17;12.70;;;;;;;7.64;100.00;99954.66;4874470;29;20039;-77
2023/10/25 03:58:33;;;;;;;21.80;11.15;;;;;;;7.63;100.00;99949.41;4935673;29;20044;-77
2023/10/25 04:01:03;;;;;;;24.73;12.73;;;;;;;7.63;100.00;99952.91;4915670;28;20047;-77
2023/10/25 04:03:34;;;;;;;21.25;12.07;;;;;;;7.61;100.00;99949.41;4898550;29;20048;-78
2023/10/25 04:06:04;;;;;;;18.95;11.93;;;;;;;7.60;100.00;99958.16;4929468;28;20062;-78
2023/10/25 04:08:31;;;;;;;23.92;12.63;;;;;;;7.60;100.00;99963.41;4932072;29;20047;-77
2023/10/25 04:10:59;;;;;;;19.83;11.77;;;;;;;7.58;100.00;99952.00;4914744;28;20051;-77
2023/10/25 04:13:27;;;;;;;19.60;11.85;;;;;;;7.56;100.00;99959.00;4901668;29;20531;-77
2023/10/25 04:15:58;;;;;;;21.65;11.90;;;;;;;7.56;100.00;99957.28;4932709;29;20420;-78
2023/10/25 04:18:28;;;;;;;18.38;12.07;;;;;;;7.55;100.00;99963.38;4930540;29;20062;-78
2023/10/25 04:20:56;;;;;;;17.05;12.70;;;;;;;7.57;100.00;99963.38;4927600;29;20051;-77
2023/10/25 04:23:25;;;;;;;25.30;12.18;;;;;;;7.60;100.00;99960.78;4909768;29;20046;-77
2023/10/25 04:26:02;;;;;;;26.27;14.35;;;;;;;7.61;100.00;99952.03;4925902;28;20063;-77
2023/10/25 04:28:30;;;;;;;17.77;11.00;;;;;;;7.63;100.00;99954.66;4909638;29;20078;-77
2023/10/25 04:30:58;;;;;;;22.50;12.40;;;;;;;7.63;100.00;99960.75;4918372;29;20051;-77
2023/10/25 04:33:26;;;;;;;21.60;11.75;;;;;;;7.65;100.00;99966.88;4916458;29;20055;-77
2023/10/25 04:35:55;;;;;;;26.83;11.85;;;;;;;7.64;100.00;99962.53;4918071;29;20055;-76
2023/10/25 04:38:24;;;;;;;14.55;10.93;;;;;;;7.63;100.00;99955.53;4909469;29;20046;-77
2023/10/25 04:40:55;;;;;;;20.02;11.20;;;;;;;7.64;100.00;99956.38;4929968;28;20051;-76
2023/10/25 04:43:23;;;;;;;18.48;10.60;;;;;;;7.63;100.00;99949.41;4922727;29;20670;-78
2023/10/25 04:45:51;;;;;;;22.75;11.10;;;;;;;7.60;100.00;99950.28;4932782;29;20058;-77
2023/10/25 04:48:19;;;;;;;16.35;10.07;;;;;;;7.59;100.00;99945.91;4915117;29;20520;-77
2023/10/25 04:50:46;;;;;;;18.08;10.57;;;;;;;7.57;100.00;99940.66;4917748;29;20059;-77
2023/10/25 04:53:14;;;;;;;20.33;10.52;;;;;;;7.57;100.00;99942.41;4941247;28;20058;-78
2023/10/25 04:55:45;;;;;;;16.40;9.65;;;;;;;7.57;100.00;99939.78;4917189;29;20055;-77
2023/10/25 04:58:13;;;;;;;14.80;9.80;;;;;;;7.55;100.00;99944.16;4875014;29;20539;-77
2023/10/25 05:00:41;;;;;;;18.45;11.18;;;;;;;7.53;100.00;99938.03;4952253;29;20500;-78
2023/10/25 05:03:13;;;;;;;20.48;9.93;;;;;;;7.52;100.00;99941.53;4922507;29;20054;-77
2023/10/25 05:05:40;;;;;;;17.55;10.52;;;;;;;7.50;100.00;99943.28;4917767;29;20418;-78
2023/10/25 05:08:09;;;;;;;18.50;9.88;;;;;;;7.47;100.00;99941.53;4913706;29;20047;-77
2023/10/25 05:10:36;;;;;;;22.60;10.40;;;;;;;7.46;100.00;99931.91;4895941;29;20059;-78
2023/10/25 05:13:04;;;;;;;16.65;9.30;;;;;;;7.46;100.00;99937.16;4886950;28;20066;-77
2023/10/25 05:15:35;;;;;;;14.32;9.73;;;;;;;7.44;100.00;99938.03;4895137;29;20432;-77
2023/10/25 05:18:03;;;;;;;24.67;10.27;;;;;;;7.41;100.00;99937.16;4947978;29;20412;-78
2023/10/25 05:20:31;;;;;;;20.83;10.40;;;;;;;7.39;100.00;99931.03;4884286;29;20425;-77
2023/10/25 05:23:02;;;;;;;18.25;10.25;;;;;;;7.39;100.00;99933.66;4895047;29;20055;-77
2023/10/25 05:25:30;;;;;;;15.70;9.18;;;;;;;7.38;100.00;99929.28;4910691;29;20079;-76
2023/10/25 05:28:00;;;;;;;14.68;10.48;;;;;;;7.39;100.00;99936.28;4903029;29;20401;-76
2023/10/25 05:30:28;;;;;;;15.57;9.65;;;;;;;7.38;100.00;99942.38;4878488;29;20053;-77
2023/10/25 05:33:01;;;;;;;20.85;10.07;;;;;;;7.36;100.00;99941.50;4929768;29;20062;-77
2023/10/25 05:35:29;;;;;;;17.95;9.30;;;;;;;7.35;100.00;99934.53;4949946;29;20054;-77
2023/10/25 05:37:57;;;;;;;16.00;7.70;;;;;;;7.34;100.00;99943.25;4900705;29;20047;-77
2023/10/25 05:40:26;;;;;;;13.75;7.55;;;;;;;7.32;100.00;99937.13;4933058;28;20051;-77
2023/10/25 05:42:57;;;;;;;15.23;7.20;;;;;;;7.31;100.00;99929.25;4912881;29;20097;-77
2023/10/25 05:45:25;;;;;;;13.60;7.25;;;;;;;7.29;100.00;99923.16;4871516;29;20050;-77
2023/10/25 05:47:54;;;;;;;13.68;7.28;;;;;;;7.27;100.00;99927.53;4902927;28;20052;-77
2023/10/25 05:50:21;;;;;;;12.68;7.35;;;;;;;7.24;100.00;99931.03;4917116;29;20054;-78
2023/10/25 05:52:49;;;;;;;13.00;7.57;;;;;;;7.24;100.00;99933.63;4928713;29;20062;-77
2023/10/25 05:55:17;;;;;;;10.40;6.90;;;;;;;7.22;100.00;99931.00;4947800;29;20055;-76
2023/10/25 05:57:48;;;;;;;19.63;7.38;;;;;;;7.21;100.00;99936.25;4923169;29;20055;-77
2023/10/25 06:00:15;;;;;;;13.32;7.47;;;;;;;7.19;100.00;99932.75;4929831;29;20051;-78
2023/10/25 06:02:44;;;;;;;14.68;7.30;;;;;;;7.17;100.00;99935.34;4890711;28;20039;-77
2023/10/25 06:05:13;;;;;;;12.35;6.50;;;;;;;7.16;100.00;99930.97;4936768;28;20043;-77
2023/10/25 06:07:41;;;;;;;16.02;7.28;;;;;;;7.16;100.00;99930.09;4905737;29;20047;-78
2023/10/25 06:10:09;;;;;;;10.55;6.85;;;;;;;7.14;100.00;99935.34;4932429;29;20051;-78
2023/10/25 06:12:40;;;;;;;13.63;7.32;;;;;;;7.13;100.00;99940.59;4923478;28;20476;-77
2023/10/25 06:15:10;;;;;;;14.50;7.35;;;;;;;7.12;100.00;99937.06;4937384;28;20050;-77
2023/10/25 06:17:37;;;;;;;10.32;7.35;;;;;;;7.11;100.00;99935.34;4884330;29;20067;-78
2023/10/25 06:20:06;;;;;;;12.75;7.15;;;;;;;7.10;100.00;99945.81;4928700;29;20047;-77
2023/10/25 06:22:34;;;;;;;14.00;7.72;;;;;;;7.09;100.00;99946.69;4929319;29;20051;-77
2023/10/25 06:25:04;;;;;;;12.23;7.50;;;;;;;7.06;100.00;99957.16;4949562;28;20059;-77
2023/10/25 06:27:32;;;;;;;16.30;8.40;;;;;;;7.07;100.00;99956.28;4920137;29;20051;-76
2023/10/25 06:30:00;;;;;;;10.18;7.15;;;;;;;7.05;100.00;99951.06;4898803;29;20052;-77
2023/10/25 06:32:28;;;;;;;12.15;7.10;;;;;;;7.05;100.00;99958.03;4871526;29;20503;-78
2023/10/25 06:34:55;;;;;;;13.75;7.28;;;;;;;7.05;100.00;99958.91;4931760;29;20047;-78
2023/10/25 06:37:23;;;;;;;11.82;6.57;;;;;;;7.05;100.00;99960.63;4914979;29;20055;-77
2023/10/25 06:39:50;;;;;;;10.30;6.57;;;;;;;7.04;100.00;99965.00;4928803;29;20056;-77
2023/10/25 06:42:18;;;;;;;13.25;6.85;;;;;;;7.05;100.00;99964.16;4928786;29;20055;-78
2023/10/25 06:44:46;;;;;;;15.75;6.68;;;;;;;7.05;100.00;99960.63;4921807;28;20059;-77
2023/10/25 06:47:13;;;;;;;11.75;6.30;;;;;;;7.06;100.00;99972.88;4918707;28;20070;-77
2023/10/25 06:49:41;;;;;;;7.55;6.15;;;;;;;7.07;100.00;99958.91;4879651;29;20440;-77
2023/10/25 06:52:09;;;;;;;15.50;7.13;;;;;;;7.07;100.00;99964.13;4914664;29;20489;-76
2023/10/25 06:54:37;;;;;;;13.43;6.22;;;;;;;7.08;100.00;99966.75;4944098;29;20051;-77
2023/10/25 06:57:05;;;;;;;15.30;6.97;;;;;;;7.08;100.00;99961.53;4918452;29;20531;-78
2023/10/25 06:59:33;;;;;;;7.97;5.35;;;;;;;7.10;100.00;99964.16;4932237;29;20059;-78
2023/10/25 07:02:26;;;;;;;12.27;7.40;;;;;;;7.13;100.00;99969.41;4937252;29;20047;-76
2023/10/25 07:05:00;;;;;;;18.08;7.57;;;;;;;7.15;100.00;99963.31;4941993;29;20043;-77
2023/10/25 07:07:30;;;;;;;9.98;5.82;;;;;;;7.17;100.00;99965.94;4920428;28;21492;-78
2023/10/25 07:09:59;;;;;;;15.97;6.17;;;;;;;7.20;100.00;99960.69;4936873;29;20046;-77
2023/10/25 07:12:26;;;;;;;10.82;5.97;;;;;;;7.21;100.00;99957.19;4893359;28;20314;-76
2023/10/25 07:14:54;;;;;;;11.15;6.25;;;;;;;7.23;100.00;99955.47;4904490;29;20647;-77
2023/10/25 07:17:21;;;;;;;10.80;6.13;;;;;;;7.27;100.00;99958.97;4858483;29;20086;-77
2023/10/25 07:19:48;;;;;;;8.90;6.75;;;;;;;7.28;100.00;99953.72;4902250;28;20048;-77
2023/10/25 07:22:16;;;;;;;11.40;6.55;;;;;;;7.29;100.00;99952.84;4907891;28;20063;-76
2023/10/25 07:24:43;;;;;;;10.18;6.22;;;;;;;7.33;100.00;99951.09;4944237;28;20047;-77
2023/10/25 07:27:11;;;;;;;14.25;5.95;;;;;;;7.37;100.00;99950.25;4936907;29;20077;-77
2023/10/25 07:29:39;;;;;;;11.85;6.35;;;;;;;7.40;100.00;99955.50;4915827;29;20047;-77
2023/10/25 07:32:06;;;;;;;15.77;7.03;;;;;;;7.44;100.00;99956.38;4922834;28;20063;-79
2023/10/25 07:34:34;;;;;;;10.30;6.40;;;;;;;7.48;100.00;99947.63;4876335;29;20051;-77
2023/10/25 07:37:02;;;;;;;16.02;6.47;;;;;;;7.51;100.00;99956.38;4931711;29;20035;-78
2023/10/25 07:39:29;;;;;;;12.00;6.60;;;;;;;7.54;100.00;99950.25;4910367;29;20055;-78
2023/10/25 07:41:57;;;;;;;10.55;6.20;;;;;;;7.56;100.00;99952.03;4932135;29;20078;-78
2023/10/25 07:44:25;;;;;;;11.30;6.13;;;;;;;7.60;100.00;99955.53;4935317;29;20106;-77
2023/10/25 07:46:52;;;;;;;12.55;6.85;;;;;;;7.65;100.00;99953.78;4911227;28;20043;-77
2023/10/25 07:49:20;;;;;;;13.38;6.30;;;;;;;7.69;100.00;99960.75;4859407;29;20047;-77
2023/10/25 07:51:47;;;;;;;14.77;7.75;;;;;;;7.74;100.00;99952.91;4947234;29;20412;-77
2023/10/25 07:54:14;;;;;;;9.48;6.65;;;;;;;7.78;100.00;99939.78;4911034;28;20062;-77
2023/10/25 07:56:42;;;;;;;16.73;7.90;;;;;;;7.86;100.00;99946.78;4921567;29;20058;-77
2023/10/25 07:59:12;;;;;;;12.68;7.18;;;;;;;7.92;100.00;99941.53;4930916;29;20047;-77
2023/10/25 08:01:40;;;;;;;9.52;6.45;;;;;;;7.97;100.00;99945.03;4950142;29;20058;-77
2023/10/25 08:04:08;;;;;;;11.35;6.32;;;;;;;8.02;100.00;99942.44;4929505;29;20994;-77
2023/10/25 08:06:36;;;;;;;11.05;6.22;;;;;;;8.06;100.00;99936.28;4893548;29;20414;-77
2023/10/25 08:09:04;;;;;;;10.55;6.95;;;;;;;8.12;100.00;99947.63;4914467;29;20058;-77
2023/10/25 08:11:36;;;;;;;12.18;6.65;;;;;;;8.17;100.00;99943.28;4895224;29;20058;-77
2023/10/25 08:14:04;;;;;;;12.00;5.65;;;;;;;8.22;100.00;99943.25;4918934;29;20070;-78
2023/10/25 08:16:32;;;;;;;11.45;6.03;;;;;;;8.25;100.00;99951.13;4902333;29;20059;-77
2023/10/25 08:19:00;;;;;;;13.40;5.70;;;;;;;8.29;100.00;99949.38;4906626;29;20402;-78
2023/10/25 08:21:27;;;;;;;11.73;5.45;;;;;;;8.33;100.00;99940.63;4892234;29;20051;-77
2023/10/25 08:23:56;;;;;;;11.98;6.13;;;;;;;8.39;100.00;99956.34;4894414;29;20109;-77
2023/10/25 08:26:26;;;;;;;9.30;6.30;;;;;;;8.42;100.00;99943.25;4917509;29;20055;-81
2023/10/25 08:28:54;;;;;;;12.35;5.10;;;;;;;8.44;100.00;99949.38;4916938;29;20054;-77
2023/10/25 08:31:21;;;;;;;11.18;5.93;;;;;;;8.47;100.00;99941.50;4938483;29;20051;-78
2023/10/25 08:33:49;;;;;;;10.77;5.45;;;;;;;8.50;100.00;99936.22;4910002;28;20055;-77
2023/10/25 08:36:16;;;;;;;8.95;5.47;;;;;;;8.54;100.00;99932.72;4874990;29;20412;-76
2023/10/25 08:38:44;;;;;;;10.88;5.53;;;;;;;8.58;100.00;99934.47;4916126;28;20059;-77
2023/10/25 08:41:11;;;;;;;7.72;5.50;;;;;;;8.64;100.00;99927.41;4928267;29;20425;-77
2023/10/25 08:43:40;;;;;;;9.82;5.40;;;;;;;8.68;100.00;99913.44;4924469;29;20055;-77
2023/10/25 08:46:09;;;;;;;11.05;5.38;;;;;;;8.75;100.00;99925.63;4949912;29;20051;-76
2023/10/25 08:48:37;;;;;;;8.77;5.25;;;;;;;8.80;100.00;99928.25;4929639;29;20066;-76
2023/10/25 08:51:05;;;;;;;9.23;5.18;;;;;;;8.84;100.00;99914.22;4901636;28;20047;-77
2023/10/25 08:53:34;;;;;;;12.05;5.95;;;;;;;8.87;100.00;99912.44;4928956;29;20504;-76
2023/10/25 08:56:03;;;;;;;11.20;5.47;;;;;;;8.91;100.00;99918.56;4932194;29;20051;-77
2023/10/25 08:58:30;;;;;;;10.45;5.20;;;;;;;8.94;100.00;99906.28;4946134;29;20123;-76
2023/10/25 09:00:57;;;;;;;12.25;5.60;;;;;;;8.99;100.00;99903.63;4917116;29;20520;-77
2023/10/25 09:03:31;;;;;;;10.48;5.45;;;;;;;9.04;100.00;99911.50;4897133;29;20055;-76
2023/10/25 09:06:00;;;;;;;7.85;5.40;;;;;;;9.11;100.00;99902.66;4877251;29;20059;-77
2023/10/25 09:08:28;;;;;;;10.90;5.90;;;;;;;9.17;100.00;99894.78;4942332;29;20524;-76
2023/10/25 09:11:02;;;;;;;9.00;5.72;;;;;;;9.23;100.00;99901.75;4941832;28;20039;-77
2023/10/25 09:13:32;;;;;;;8.63;5.35;;;;;;;9.28;100.00;99887.69;4914926;29;20071;-78
2023/10/25 09:16:13;;;;;;;10.80;6.45;;;;;;;9.34;100.00;99892.91;4933928;28;20055;-77
2023/10/25 09:18:41;;;;;;;7.47;5.90;;;;;;;9.38;100.00;99888.50;4930470;29;20047;-78
2023/10/25 09:21:12;;;;;;;10.10;6.05;;;;;;;9.42;100.00;99897.25;4889602;29;20481;-76
2023/10/25 09:23:40;;;;;;;13.65;6.50;;;;;;;9.46;100.00;99897.19;4927145;29;20062;-78
2023/10/25 09:26:16;;;;;;;10.48;6.88;;;;;;;9.50;100.00;99892.78;4908379;29;20054;-76
2023/10/25 09:28:45;;;;;;;14.45;6.55;;;;;;;9.55;100.00;99893.63;4948624;29;20474;-77
2023/10/25 09:31:26;;;;;;;9.10;6.35;;;;;;;9.58;100.00;99901.47;4933777;29;20044;-78
2023/10/25 09:33:58;;;;;;;8.35;6.72;;;;;;;9.61;100.00;99896.19;4915209;29;20051;-78
2023/10/25 09:36:27;;;;;;;15.85;6.55;;;;;;;9.65;100.00;99891.78;4883332;28;20055;-78
2023/10/25 09:38:56;;;;;;;7.97;6.10;;;;;;;9.67;100.00;99895.28;4913079;29;20058;-78
2023/10/25 09:41:26;;;;;;;8.65;5.40;;;;;;;9.67;100.00;99890.88;4915254;28;20058;-78
2023/10/25 09:44:01;;;;;;;8.02;5.50;;;;;;;9.67;100.00;99892.66;4931983;29;20058;-79
2023/10/25 09:46:31;;;;;;;10.15;6.13;;;;;;;9.68;100.00;99897.91;4938101;29;20062;-78
2023/10/25 09:49:02;;;;;;;6.82;5.63;;;;;;;9.71;100.00;99889.09;4933356;29;20055;-78
2023/10/25 09:52:01;;;;;;;11.68;5.55;;;;;;;9.74;100.00;99899.59;4894900;28;20035;-77
2023/10/25 09:54:36;;;;;;;11.23;6.50;;;;;;;9.76;100.00;99896.06;4948581;29;20070;-77
2023/10/25 09:57:07;;;;;;;9.52;6.40;;;;;;;9.82;100.00;99894.28;4932394;29;20054;-77
2023/10/25 09:59:37;;;;;;;10.02;6.53;;;;;;;9.83;100.00;99889.00;4907169;29;20047;-77
2023/10/25 10:02:07;;;;;;;16.13;5.90;;;;;;;9.88;100.00;99881.06;4905585;29;20056;-78
2023/10/25 10:04:39;;;;;;;;;;;;;;;9.92;100.00;99882.75;4926530;29;20054;-77
2023/10/25 10:07:35;;;;;;;9.70;6.53;;;;;;;9.99;100.00;99873.94;4894750;28;20392;-78
2023/10/25 10:10:41;;;;;;;10.75;7.05;;;;;;;10.04;100.00;99877.41;4923232;28;20047;-76
2023/10/25 10:13:16;;;;;;;9.20;6.15;;;;;;;10.14;100.00;99865.00;4927608;29;20492;-78
2023/10/25 10:16:01;;;;;;;12.48;6.65;;;;;;;10.20;100.00;99858.81;4903511;29;20055;-77
2023/10/25 10:18:37;;;;;;;9.63;6.35;;;;;;;10.28;100.00;99852.56;4949686;29;20051;-78
2023/10/25 10:21:07;;;;;;;9.98;6.57;;;;;;;10.34;100.00;99854.31;4930837;29;20409;-79
2023/10/25 10:23:43;;;;;;;11.10;6.70;;;;;;;10.45;100.00;99854.16;4848560;29;20059;-79
2023/10/25 10:26:11;;;;;;;13.55;6.28;;;;;;;10.54;100.00;99841.72;4909795;29;20075;-78
2023/10/25 10:28:43;;;;;;;9.65;5.78;;;;;;;10.65;100.00;99838.09;4908848;29;20055;-78
2023/10/25 10:31:12;;;;;;;11.32;5.93;;;;;;;10.76;100.00;99836.19;4894227;29;20040;-78
2023/10/25 10:33:49;;;;;;;10.98;6.15;;;;;;;10.86;100.00;99837.78;4920966;29;20423;-77
2023/10/25 10:36:24;;;;;;;12.13;6.15;;;;;;;10.97;100.00;99837.66;4911168;29;20502;-78
2023/10/25 10:39:16;;;;;;;10.18;5.80;;;;;;;11.04;100.00;99831.41;4927469;29;20039;-77
2023/10/25 10:41:45;;;;;;;8.18;5.40;;;;;;;11.11;100.00;99824.25;4915071;29;20048;-78
2023/10/25 10:44:13;;;;;;;9.75;5.95;;;;;;;11.21;100.00;99825.88;4913444;29;20055;-78
2023/10/25 10:46:53;;;;;;;9.52;5.22;;;;;;;11.28;100.00;99819.56;4907720;29;20465;-79
2023/10/25 10:49:23;;;;;;;9.95;5.78;;;;;;;11.37;100.00;99818.56;4906758;29;20056;-78
2023/10/25 10:51:50;;;;;;;6.93;5.78;;;;;;;11.47;100.00;99824.56;4919955;29;20054;-78
2023/10/25 10:54:18;;;;;;;12.25;5.85;;;;;;;11.58;100.00;99809.41;4875840;29;20051;-77
2023/10/25 10:56:46;;;;;;;6.80;4.55;;;;;;;11.68;100.00;99810.13;4909230;29;20051;-77
2023/10/25 10:59:13;;;;;;;6.65;4.57;;;;;;;11.75;100.00;99802.97;4921851;29;20394;-77
2023/10/25 11:01:44;;;;;;;8.70;4.65;;;;;;;11.82;100.00;99805.47;4897126;29;20536;-77
2023/10/25 11:04:12;;;;;;;9.50;5.00;;;;;;;11.92;100.00;99805.34;4900960;29;20058;-79
2023/10/25 11:06:44;;;;;;;11.05;4.50;;;;;;;11.97;100.00;99800.84;4909364;29;20043;-79
2023/10/25 11:09:12;;;;;;;7.97;4.35;;;;;;;12.05;100.00;99797.13;4878098;29;20040;-78
2023/10/25 11:11:40;;;;;;;8.35;4.63;;;;;;;12.14;100.00;99793.44;4916059;29;20063;-78
2023/10/25 11:14:07;;;;;;;6.03;4.03;;;;;;;12.22;100.00;99790.66;4888517;29;20048;-79
2023/10/25 11:16:34;;;;;;;7.85;4.30;;;;;;;12.30;100.00;99791.34;4913290;29;20086;-78
2023/10/25 11:19:08;;;;;;;5.05;3.85;;;;;;;12.36;100.00;99780.69;4914307;28;20043;-80
2023/10/25 11:21:37;;;;;;;7.50;3.75;;;;;;;12.42;100.00;99777.91;4921035;29;20527;-78
2023/10/25 11:24:09;;;;;;;7.63;4.00;;;;;;;12.48;100.00;99783.06;4880708;29;20062;-78
2023/10/25 11:26:38;;;;;;;6.72;3.67;;;;;;;12.53;100.00;99772.38;4939389;29;20062;-78
2023/10/25 11:29:06;;;;;;;6.85;3.97;;;;;;;12.55;100.00;99775.88;4936976;29;20047;-78
2023/10/25 11:31:34;;;;;;;7.25;3.30;;;;;;;12.62;100.00;99771.31;4924744;29;20065;-76
2023/10/25 11:34:01;;;;;;;9.80;4.80;;;;;;;12.67;100.00;99758.88;4929288;29;20063;-77